Albert City, Iowa
Current Conditions -  °F | °C
As of 4:55 AM on Wednesday 22 Oct 2014 (Local Time) from KSLB Reporting Station
Overcast Overcast  
Wind Chill: 39°   Ceiling: 4500
Heat Index: 46°   Visibility: 10mi
Dew Point: 41°   Wind: 17mph
Humidity: 81%   Direction: 150°SSE
Pressure: 30.12"   Gusts: NA
Location:  42.78°N, 94.95°W
Report Text: KSLB 220955Z AUTO 15015KT 10SM BKN045 OVC055 08/05 A3012 RMK AO2
Loading
Personal Weather Stations






























Interactive Weather Map
Tropical Storm Tracking
New forecast layout! Learn more

10-Day Weather Forecast

Advertisements
Track Severe Weather on mobile